sensor_id;sensor_type;location;lat;lon;timestamp;temperature;humidity
1570;DHT22;778;50.120;8.698;2023-06-10T00:00:50;21.40;96.10
1570;DHT22;778;50.120;8.698;2023-06-10T00:03:20;21.40;96.70
1570;DHT22;778;50.120;8.698;2023-06-10T00:05:50;21.40;97.50
1570;DHT22;778;50.120;8.698;2023-06-10T00:08:19;21.40;98.20
1570;DHT22;778;50.120;8.698;2023-06-10T00:10:47;21.30;98.60
1570;DHT22;778;50.120;8.698;2023-06-10T00:13:16;21.20;99.10
1570;DHT22;778;50.120;8.698;2023-06-10T00:15:44;21.30;99.90
1570;DHT22;778;50.120;8.698;2023-06-10T00:18:13;21.20;99.90
1570;DHT22;778;50.120;8.698;2023-06-10T00:20:43;21.20;99.90
1570;DHT22;778;50.120;8.698;2023-06-10T00:23:12;21.20;99.90
1570;DHT22;778;50.120;8.698;2023-06-10T00:25:40;21.30;99.90
1570;DHT22;778;50.120;8.698;2023-06-10T00:28:09;21.20;99.90
1570;DHT22;778;50.120;8.698;2023-06-10T00:30:37;21.20;99.90
1570;DHT22;778;50.120;8.698;2023-06-10T00:33:09;21.20;99.90
1570;DHT22;778;50.120;8.698;2023-06-10T00:35:38;21.10;99.90
1570;DHT22;778;50.120;8.698;2023-06-10T00:38:08;21.20;99.90
1570;DHT22;778;50.120;8.698;2023-06-10T00:40:39;21.20;99.90
1570;DHT22;778;50.120;8.698;2023-06-10T00:43:08;21.20;99.90
1570;DHT22;778;50.120;8.698;2023-06-10T00:45:36;21.10;99.90
1570;DHT22;778;50.120;8.698;2023-06-10T00:48:05;21.10;99.90
1570;DHT22;778;50.120;8.698;2023-06-10T00:50:35;21.10;99.90
1570;DHT22;778;50.120;8.698;2023-06-10T00:53:07;21.10;99.90
1570;DHT22;778;50.120;8.698;2023-06-10T00:55:37;21.10;99.90
1570;DHT22;778;50.120;8.698;2023-06-10T00:58:05;21.10;99.90
1570;DHT22;778;50.120;8.698;2023-06-10T01:00:34;21.10;99.90
1570;DHT22;778;50.120;8.698;2023-06-10T01:03:03;21.00;99.90
1570;DHT22;778;50.120;8.698;2023-06-10T01:05:35;21.00;99.90
1570;DHT22;778;50.120;8.698;2023-06-10T01:08:12;21.00;99.90
1570;DHT22;778;50.120;8.698;2023-06-10T01:10:49;21.00;99.90
1570;DHT22;778;50.120;8.698;2023-06-10T01:13:22;21.00;99.90
1570;DHT22;778;50.120;8.698;2023-06-10T01:15:51;21.00;99.90
1570;DHT22;778;50.120;8.698;2023-06-10T01:18:20;21.10;99.90
1570;DHT22;778;50.120;8.698;2023-06-10T01:20:48;21.00;99.90
1570;DHT22;778;50.120;8.698;2023-06-10T01:23:20;21.00;99.90
1570;DHT22;778;50.120;8.698;2023-06-10T01:25:52;21.00;99.90
1570;DHT22;778;50.120;8.698;2023-06-10T01:28:27;21.00;99.90
1570;DHT22;778;50.120;8.698;2023-06-10T01:31:07;20.90;99.90
1570;DHT22;778;50.120;8.698;2023-06-10T01:33:41;20.90;99.90
1570;DHT22;778;50.120;8.698;2023-06-10T01:36:12;20.90;99.90
1570;DHT22;778;50.120;8.698;2023-06-10T01:38:44;20.90;99.90
1570;DHT22;778;50.120;8.698;2023-06-10T01:41:16;20.80;99.90
1570;DHT22;778;50.120;8.698;2023-06-10T01:43:45;20.90;99.90
1570;DHT22;778;50.120;8.698;2023-06-10T01:46:15;20.80;99.90
1570;DHT22;778;50.120;8.698;2023-06-10T01:48:47;20.80;99.90
1570;DHT22;778;50.120;8.698;2023-06-10T01:51:15;20.70;99.90
1570;DHT22;778;50.120;8.698;2023-06-10T01:53:45;20.60;99.90
1570;DHT22;778;50.120;8.698;2023-06-10T01:56:13;20.50;99.90
1570;DHT22;778;50.120;8.698;2023-06-10T01:58:45;20.50;99.90
1570;DHT22;778;50.120;8.698;2023-06-10T02:01:14;20.50;99.90
1570;DHT22;778;50.120;8.698;2023-06-10T02:03:43;20.50;99.90
1570;DHT22;778;50.120;8.698;2023-06-10T02:06:11;20.60;99.90
1570;DHT22;778;50.120;8.698;2023-06-10T02:08:40;20.60;99.90
1570;DHT22;778;50.120;8.698;2023-06-10T02:11:10;20.50;99.90
1570;DHT22;778;50.120;8.698;2023-06-10T02:13:38;20.50;99.90
1570;DHT22;778;50.120;8.698;2023-06-10T02:16:06;20.40;99.90
1570;DHT22;778;50.120;8.698;2023-06-10T02:18:36;20.40;99.90
1570;DHT22;778;50.120;8.698;2023-06-10T02:21:07;20.40;99.90
1570;DHT22;778;50.120;8.698;2023-06-10T02:23:36;20.50;99.90
1570;DHT22;778;50.120;8.698;2023-06-10T02:26:04;20.50;99.90
1570;DHT22;778;50.120;8.698;2023-06-10T02:28:34;20.40;99.90
1570;DHT22;778;50.120;8.698;2023-06-10T02:31:03;20.50;99.90
1570;DHT22;778;50.120;8.698;2023-06-10T02:33:31;20.50;99.90
1570;DHT22;778;50.120;8.698;2023-06-10T02:36:01;20.40;99.90
1570;DHT22;778;50.120;8.698;2023-06-10T02:38:30;20.40;99.90
1570;DHT22;778;50.120;8.698;2023-06-10T02:41:00;20.40;99.90
1570;DHT22;778;50.120;8.698;2023-06-10T02:43:28;20.30;99.90
1570;DHT22;778;50.120;8.698;2023-06-10T02:45:58;20.30;99.90
1570;DHT22;778;50.120;8.698;2023-06-10T02:48:28;20.30;99.90
1570;DHT22;778;50.120;8.698;2023-06-10T02:50:57;20.30;99.90
1570;DHT22;778;50.120;8.698;2023-06-10T02:53:32;20.30;99.90
1570;DHT22;778;50.120;8.698;2023-06-10T02:56:06;20.30;99.90
1570;DHT22;778;50.120;8.698;2023-06-10T02:58:34;20.20;99.90
1570;DHT22;778;50.120;8.698;2023-06-10T03:01:06;20.20;99.90
1570;DHT22;778;50.120;8.698;2023-06-10T03:03:45;20.10;99.90
1570;DHT22;778;50.120;8.698;2023-06-10T03:06:16;20.10;99.90
1570;DHT22;778;50.120;8.698;2023-06-10T03:08:45;20.10;99.90
1570;DHT22;778;50.120;8.698;2023-06-10T03:11:16;20.10;99.90
1570;DHT22;778;50.120;8.698;2023-06-10T03:13:47;20.20;99.90
1570;DHT22;778;50.120;8.698;2023-06-10T03:16:19;20.20;99.90
1570;DHT22;778;50.120;8.698;2023-06-10T03:18:48;20.20;99.90
1570;DHT22;778;50.120;8.698;2023-06-10T03:21:17;20.20;99.90
1570;DHT22;778;50.120;8.698;2023-06-10T03:23:46;20.20;99.90
1570;DHT22;778;50.120;8.698;2023-06-10T03:26:14;20.20;99.90
1570;DHT22;778;50.120;8.698;2023-06-10T03:28:46;20.10;99.90
1570;DHT22;778;50.120;8.698;2023-06-10T03:31:15;20.20;99.90
1570;DHT22;778;50.120;8.698;2023-06-10T03:33:46;20.10;99.90
1570;DHT22;778;50.120;8.698;2023-06-10T03:36:14;20.10;99.90
1570;DHT22;778;50.120;8.698;2023-06-10T03:38:43;20.10;99.90
1570;DHT22;778;50.120;8.698;2023-06-10T03:41:12;20.20;99.90
1570;DHT22;778;50.120;8.698;2023-06-10T03:43:41;20.20;99.90
1570;DHT22;778;50.120;8.698;2023-06-10T03:46:12;20.20;99.90
1570;DHT22;778;50.120;8.698;2023-06-10T03:48:41;20.40;99.90
1570;DHT22;778;50.120;8.698;2023-06-10T03:51:11;20.40;99.90
1570;DHT22;778;50.120;8.698;2023-06-10T03:53:39;20.40;99.90
1570;DHT22;778;50.120;8.698;2023-06-10T03:56:08;20.40;99.90
1570;DHT22;778;50.120;8.698;2023-06-10T03:58:36;20.30;99.90
1570;DHT22;778;50.120;8.698;2023-06-10T04:01:05;20.20;99.90
1570;DHT22;778;50.120;8.698;2023-06-10T04:03:35;20.20;99.90
1570;DHT22;778;50.120;8.698;2023-06-10T04:06:03;20.20;99.90
1570;DHT22;778;50.120;8.698;2023-06-10T04:08:33;20.40;99.90
1570;DHT22;778;50.120;8.698;2023-06-10T04:11:02;20.60;99.90
1570;DHT22;778;50.120;8.698;2023-06-10T04:13:31;20.50;99.90
1570;DHT22;778;50.120;8.698;2023-06-10T04:15:59;20.70;99.90
1570;DHT22;778;50.120;8.698;2023-06-10T04:18:29;20.80;99.90
1570;DHT22;778;50.120;8.698;2023-06-10T04:21:02;20.80;99.90
1570;DHT22;778;50.120;8.698;2023-06-10T04:23:33;20.70;99.90
1570;DHT22;778;50.120;8.698;2023-06-10T04:26:03;20.70;99.90
1570;DHT22;778;50.120;8.698;2023-06-10T04:28:32;20.60;99.90
1570;DHT22;778;50.120;8.698;2023-06-10T04:31:01;20.60;99.90
1570;DHT22;778;50.120;8.698;2023-06-10T04:33:31;20.70;99.90
1570;DHT22;778;50.120;8.698;2023-06-10T04:36:02;20.80;99.90
1570;DHT22;778;50.120;8.698;2023-06-10T04:38:31;20.90;99.90
1570;DHT22;778;50.120;8.698;2023-06-10T04:41:00;21.00;99.90
1570;DHT22;778;50.120;8.698;2023-06-10T04:43:32;20.90;99.90
1570;DHT22;778;50.120;8.698;2023-06-10T04:46:01;21.00;99.90
1570;DHT22;778;50.120;8.698;2023-06-10T04:48:31;21.10;99.90
1570;DHT22;778;50.120;8.698;2023-06-10T04:51:03;21.20;99.90
1570;DHT22;778;50.120;8.698;2023-06-10T04:53:33;21.20;99.90
1570;DHT22;778;50.120;8.698;2023-06-10T04:56:02;21.20;99.90
1570;DHT22;778;50.120;8.698;2023-06-10T04:58:30;21.30;99.90
1570;DHT22;778;50.120;8.698;2023-06-10T05:00:59;21.50;99.90
1570;DHT22;778;50.120;8.698;2023-06-10T05:03:28;21.40;99.90
1570;DHT22;778;50.120;8.698;2023-06-10T05:05:57;21.40;99.80
1570;DHT22;778;50.120;8.698;2023-06-10T05:08:25;21.50;99.80
1570;DHT22;778;50.120;8.698;2023-06-10T05:10:55;21.60;99.60
1570;DHT22;778;50.120;8.698;2023-06-10T05:13:23;21.70;99.40
1570;DHT22;778;50.120;8.698;2023-06-10T05:15:52;21.70;99.00
1570;DHT22;778;50.120;8.698;2023-06-10T05:18:20;21.80;99.00
1570;DHT22;778;50.120;8.698;2023-06-10T05:20:49;21.80;98.60
1570;DHT22;778;50.120;8.698;2023-06-10T05:23:18;22.00;98.40
1570;DHT22;778;50.120;8.698;2023-06-10T05:25:46;22.20;98.00
1570;DHT22;778;50.120;8.698;2023-06-10T05:28:16;22.20;97.70
1570;DHT22;778;50.120;8.698;2023-06-10T05:30:45;22.30;97.40
1570;DHT22;778;50.120;8.698;2023-06-10T05:33:14;22.40;97.00
1570;DHT22;778;50.120;8.698;2023-06-10T05:35:44;22.60;96.70
1570;DHT22;778;50.120;8.698;2023-06-10T05:38:12;22.50;96.40
1570;DHT22;778;50.120;8.698;2023-06-10T05:40:41;22.60;96.70
1570;DHT22;778;50.120;8.698;2023-06-10T05:43:09;22.80;96.00
1570;DHT22;778;50.120;8.698;2023-06-10T05:45:39;22.90;95.70
1570;DHT22;778;50.120;8.698;2023-06-10T05:48:08;22.80;95.30
1570;DHT22;778;50.120;8.698;2023-06-10T05:50:36;22.90;95.50
1570;DHT22;778;50.120;8.698;2023-06-10T05:53:06;23.10;95.00
1570;DHT22;778;50.120;8.698;2023-06-10T05:55:42;23.20;94.90
1570;DHT22;778;50.120;8.698;2023-06-10T05:58:11;23.20;94.60
1570;DHT22;778;50.120;8.698;2023-06-10T06:00:41;23.50;94.50
1570;DHT22;778;50.120;8.698;2023-06-10T06:03:11;23.60;94.00
1570;DHT22;778;50.120;8.698;2023-06-10T06:05:40;23.70;93.70
1570;DHT22;778;50.120;8.698;2023-06-10T06:08:10;23.90;93.30
1570;DHT22;778;50.120;8.698;2023-06-10T06:10:40;23.90;93.30
1570;DHT22;778;50.120;8.698;2023-06-10T06:13:08;23.60;93.00
1570;DHT22;778;50.120;8.698;2023-06-10T06:15:36;23.60;93.30
1570;DHT22;778;50.120;8.698;2023-06-10T06:18:06;23.70;93.50
1570;DHT22;778;50.120;8.698;2023-06-10T06:20:35;23.50;94.30
1570;DHT22;778;50.120;8.698;2023-06-10T06:23:03;23.60;93.80
1570;DHT22;778;50.120;8.698;2023-06-10T06:25:32;23.70;94.60
1570;DHT22;778;50.120;8.698;2023-06-10T06:28:00;24.00;93.40
1570;DHT22;778;50.120;8.698;2023-06-10T06:30:29;24.00;92.80
1570;DHT22;778;50.120;8.698;2023-06-10T06:32:57;24.20;92.70
1570;DHT22;778;50.120;8.698;2023-06-10T06:35:27;24.40;92.50
1570;DHT22;778;50.120;8.698;2023-06-10T06:37:55;24.50;91.80
1570;DHT22;778;50.120;8.698;2023-06-10T06:40:27;24.50;91.90
1570;DHT22;778;50.120;8.698;2023-06-10T06:42:56;24.40;91.30
1570;DHT22;778;50.120;8.698;2023-06-10T06:45:36;24.30;91.30
1570;DHT22;778;50.120;8.698;2023-06-10T06:48:05;24.50;91.60
1570;DHT22;778;50.120;8.698;2023-06-10T06:50:35;25.00;92.10
1570;DHT22;778;50.120;8.698;2023-06-10T06:53:03;25.20;90.70
1570;DHT22;778;50.120;8.698;2023-06-10T06:55:32;25.10;90.40
1570;DHT22;778;50.120;8.698;2023-06-10T06:58:00;25.20;89.60
1570;DHT22;778;50.120;8.698;2023-06-10T07:00:31;25.20;89.10
1570;DHT22;778;50.120;8.698;2023-06-10T07:02:59;25.20;88.40
1570;DHT22;778;50.120;8.698;2023-06-10T07:05:28;25.20;88.30
1570;DHT22;778;50.120;8.698;2023-06-10T07:07:59;25.10;88.20
1570;DHT22;778;50.120;8.698;2023-06-10T07:10:28;25.30;89.10
1570;DHT22;778;50.120;8.698;2023-06-10T07:12:57;25.60;88.40
1570;DHT22;778;50.120;8.698;2023-06-10T07:15:26;25.50;87.60
1570;DHT22;778;50.120;8.698;2023-06-10T07:17:54;25.50;88.10
1570;DHT22;778;50.120;8.698;2023-06-10T07:20:23;25.50;88.40
1570;DHT22;778;50.120;8.698;2023-06-10T07:22:51;25.60;88.00
1570;DHT22;778;50.120;8.698;2023-06-10T07:25:21;25.90;87.60
1570;DHT22;778;50.120;8.698;2023-06-10T07:27:50;26.30;86.50
1570;DHT22;778;50.120;8.698;2023-06-10T07:30:18;26.30;85.20
1570;DHT22;778;50.120;8.698;2023-06-10T07:32:46;26.30;85.10
1570;DHT22;778;50.120;8.698;2023-06-10T07:35:15;26.20;82.20
1570;DHT22;778;50.120;8.698;2023-06-10T07:37:44;26.40;80.40
1570;DHT22;778;50.120;8.698;2023-06-10T07:40:13;26.70;80.80
